sensor_id;sensor_type;location;lat;lon;timestamp;pressure;altitude;pressure_sealevel;temperature;humidity
23616;BME280;11985;49.404;7.734;2023-03-07T00:04:26;96062.59;;;0.51;100.00
23616;BME280;11985;49.404;7.734;2023-03-07T00:09:29;96060.50;;;0.46;100.00
23616;BME280;11985;49.404;7.734;2023-03-07T00:14:30;96069.59;;;0.42;100.00
23616;BME280;11985;49.404;7.734;2023-03-07T00:19:32;96056.16;;;0.39;100.00
23616;BME280;11985;49.404;7.734;2023-03-07T00:24:35;96054.44;;;0.31;100.00
23616;BME280;11985;49.404;7.734;2023-03-07T00:29:36;96048.00;;;0.27;100.00
23616;BME280;11985;49.404;7.734;2023-03-07T00:34:38;96039.47;;;0.18;100.00
23616;BME280;11985;49.404;7.734;2023-03-07T00:39:41;96034.63;;;0.15;100.00
23616;BME280;11985;49.404;7.734;2023-03-07T00:44:43;96031.75;;;0.10;100.00
23616;BME280;11985;49.404;7.734;2023-03-07T00:49:44;96033.59;;;0.02;100.00
23616;BME280;11985;49.404;7.734;2023-03-07T00:54:47;96023.91;;;-0.05;100.00
23616;BME280;11985;49.404;7.734;2023-03-07T00:59:49;96028.28;;;-0.05;100.00
23616;BME280;11985;49.404;7.734;2023-03-07T01:04:50;96017.47;;;-0.09;100.00
23616;BME280;11985;49.404;7.734;2023-03-07T01:09:53;96009.88;;;-0.10;100.00
23616;BME280;11985;49.404;7.734;2023-03-07T01:14:55;96009.88;;;-0.10;100.00
23616;BME280;11985;49.404;7.734;2023-03-07T01:19:56;96008.72;;;-0.08;100.00
23616;BME280;11985;49.404;7.734;2023-03-07T01:24:59;96013.09;;;-0.08;100.00
23616;BME280;11985;49.404;7.734;2023-03-07T01:30:01;96011.66;;;-0.11;100.00
23616;BME280;11985;49.404;7.734;2023-03-07T01:35:03;96003.88;;;-0.11;100.00
23616;BME280;11985;49.404;7.734;2023-03-07T01:40:08;96007.91;;;-0.08;100.00
23616;BME280;11985;49.404;7.734;2023-03-07T01:50:26;96004.22;;;-0.14;100.00
23616;BME280;11985;49.404;7.734;2023-03-07T01:55:30;95980.31;;;-0.16;100.00
23616;BME280;11985;49.404;7.734;2023-03-07T02:00:33;95976.25;;;-0.18;100.00
23616;BME280;11985;49.404;7.734;2023-03-07T02:05:40;95965.91;;;-0.18;100.00
23616;BME280;11985;49.404;7.734;2023-03-07T02:10:44;95956.34;;;-0.18;100.00
23616;BME280;11985;49.404;7.734;2023-03-07T02:15:46;95959.59;;;-0.16;100.00
23616;BME280;11985;49.404;7.734;2023-03-07T02:20:53;95953.25;;;-0.13;100.00
23616;BME280;11985;49.404;7.734;2023-03-07T02:26:03;95947.28;;;-0.14;100.00
23616;BME280;11985;49.404;7.734;2023-03-07T02:31:09;95940.50;;;-0.15;100.00
23616;BME280;11985;49.404;7.734;2023-03-07T02:36:13;95937.22;;;-0.09;100.00
23616;BME280;11985;49.404;7.734;2023-03-07T02:41:20;95932.03;;;-0.09;100.00
23616;BME280;11985;49.404;7.734;2023-03-07T02:46:28;95935.09;;;-0.05;100.00
23616;BME280;11985;49.404;7.734;2023-03-07T02:51:30;95922.97;;;-0.05;100.00
23616;BME280;11985;49.404;7.734;2023-03-07T02:56:31;95926.19;;;-0.03;100.00
23616;BME280;11985;49.404;7.734;2023-03-07T03:01:34;95922.78;;;-0.03;100.00
23616;BME280;11985;49.404;7.734;2023-03-07T03:06:36;95911.94;;;0.02;100.00
23616;BME280;11985;49.404;7.734;2023-03-07T03:11:38;95922.47;;;0.00;100.00
23616;BME280;11985;49.404;7.734;2023-03-07T03:16:41;95915.66;;;-0.01;100.00
23616;BME280;11985;49.404;7.734;2023-03-07T03:21:42;95911.28;;;-0.01;100.00
23616;BME280;11985;49.404;7.734;2023-03-07T03:26:44;95901.28;;;-0.04;100.00
23616;BME280;11985;49.404;7.734;2023-03-07T03:31:47;95906.78;;;-0.07;100.00
23616;BME280;11985;49.404;7.734;2023-03-07T03:36:48;95898.03;;;-0.06;100.00
23616;BME280;11985;49.404;7.734;2023-03-07T03:41:50;95901.91;;;-0.02;100.00
23616;BME280;11985;49.404;7.734;2023-03-07T03:46:53;95898.97;;;0.02;100.00
23616;BME280;11985;49.404;7.734;2023-03-07T03:51:55;95893.81;;;0.02;100.00
23616;BME280;11985;49.404;7.734;2023-03-07T03:56:56;95887.03;;;0.01;100.00
23616;BME280;11985;49.404;7.734;2023-03-07T04:01:59;95876.31;;;0.04;100.00
23616;BME280;11985;49.404;7.734;2023-03-07T04:07:00;95872.41;;;0.08;100.00
23616;BME280;11985;49.404;7.734;2023-03-07T04:12:04;95869.19;;;0.06;100.00
23616;BME280;11985;49.404;7.734;2023-03-07T04:17:07;95860.25;;;0.08;100.00
23616;BME280;11985;49.404;7.734;2023-03-07T04:22:08;95859.47;;;0.08;100.00
23616;BME280;11985;49.404;7.734;2023-03-07T04:27:10;95863.31;;;0.12;100.00
23616;BME280;11985;49.404;7.734;2023-03-07T04:32:12;95851.78;;;0.14;100.00
23616;BME280;11985;49.404;7.734;2023-03-07T04:37:15;95841.94;;;0.10;100.00
23616;BME280;11985;49.404;7.734;2023-03-07T04:42:17;95840.97;;;0.11;100.00
23616;BME280;11985;49.404;7.734;2023-03-07T04:47:19;95840.97;;;0.11;100.00
23616;BME280;11985;49.404;7.734;2023-03-07T04:52:21;95841.44;;;0.14;100.00
23616;BME280;11985;49.404;7.734;2023-03-07T04:57:22;95838.22;;;0.27;100.00
23616;BME280;11985;49.404;7.734;2023-03-07T05:02:25;95837.53;;;0.33;100.00
23616;BME280;11985;49.404;7.734;2023-03-07T05:07:27;95825.50;;;0.40;100.00
23616;BME280;11985;49.404;7.734;2023-03-07T05:12:29;95831.91;;;0.44;100.00
23616;BME280;11985;49.404;7.734;2023-03-07T05:17:32;95826.03;;;0.50;100.00
23616;BME280;11985;49.404;7.734;2023-03-07T05:22:33;95810.94;;;0.54;100.00
23616;BME280;11985;49.404;7.734;2023-03-07T05:27:35;95818.16;;;0.59;100.00
23616;BME280;11985;49.404;7.734;2023-03-07T05:32:38;95813.78;;;0.59;100.00
23616;BME280;11985;49.404;7.734;2023-03-07T05:37:39;95809.16;;;0.55;100.00
23616;BME280;11985;49.404;7.734;2023-03-07T05:42:41;95805.94;;;0.52;100.00
23616;BME280;11985;49.404;7.734;2023-03-07T05:47:44;95798.69;;;0.48;100.00
23616;BME280;11985;49.404;7.734;2023-03-07T05:52:45;95794.41;;;0.40;100.00
23616;BME280;11985;49.404;7.734;2023-03-07T05:57:48;95787.44;;;0.41;100.00
23616;BME280;11985;49.404;7.734;2023-03-07T06:02:51;95788.44;;;0.40;100.00
23616;BME280;11985;49.404;7.734;2023-03-07T06:07:53;95796.38;;;0.38;100.00
23616;BME280;11985;49.404;7.734;2023-03-07T06:12:54;95787.63;;;0.39;100.00
23616;BME280;11985;49.404;7.734;2023-03-07T06:17:57;95788.88;;;0.43;100.00
23616;BME280;11985;49.404;7.734;2023-03-07T06:22:59;95794.69;;;0.45;100.00
23616;BME280;11985;49.404;7.734;2023-03-07T06:28:01;95790.59;;;0.51;100.00
23616;BME280;11985;49.404;7.734;2023-03-07T06:33:04;95790.41;;;0.52;100.00
23616;BME280;11985;49.404;7.734;2023-03-07T06:38:05;95795.31;;;0.47;100.00
23616;BME280;11985;49.404;7.734;2023-03-07T06:43:09;95789.50;;;0.45;100.00
23616;BME280;11985;49.404;7.734;2023-03-07T06:48:12;95795.31;;;0.47;100.00
23616;BME280;11985;49.404;7.734;2023-03-07T06:53:14;95797.28;;;0.45;100.00
23616;BME280;11985;49.404;7.734;2023-03-07T06:58:16;95798.16;;;0.52;100.00
23616;BME280;11985;49.404;7.734;2023-03-07T07:03:19;95799.78;;;0.53;100.00
23616;BME280;11985;49.404;7.734;2023-03-07T07:08:21;95797.97;;;0.54;100.00
23616;BME280;11985;49.404;7.734;2023-03-07T07:13:22;95796.31;;;0.61;100.00
23616;BME280;11985;49.404;7.734;2023-03-07T07:18:26;95794.84;;;0.73;100.00
23616;BME280;11985;49.404;7.734;2023-03-07T07:23:27;95792.06;;;0.75;100.00
23616;BME280;11985;49.404;7.734;2023-03-07T07:28:29;95789.50;;;0.75;100.00
23616;BME280;11985;49.404;7.734;2023-03-07T07:33:32;95797.88;;;0.77;100.00
23616;BME280;11985;49.404;7.734;2023-03-07T07:38:34;95797.34;;;0.82;100.00
23616;BME280;11985;49.404;7.734;2023-03-07T07:43:36;95802.97;;;0.85;100.00
23616;BME280;11985;49.404;7.734;2023-03-07T07:48:39;95792.88;;;0.90;100.00
23616;BME280;11985;49.404;7.734;2023-03-07T07:53:40;95795.59;;;1.03;100.00
23616;BME280;11985;49.404;7.734;2023-03-07T07:58:42;95777.84;;;1.22;100.00
23616;BME280;11985;49.404;7.734;2023-03-07T08:03:45;95778.47;;;1.24;100.00
23616;BME280;11985;49.404;7.734;2023-03-07T08:08:47;95774.78;;;1.12;100.00
23616;BME280;11985;49.404;7.734;2023-03-07T08:13:49;95773.03;;;1.19;100.00
23616;BME280;11985;49.404;7.734;2023-03-07T08:18:53;95771.69;;;1.23;100.00
23616;BME280;11985;49.404;7.734;2023-03-07T08:23:56;95771.56;;;1.31;100.00
23616;BME280;11985;49.404;7.734;2023-03-07T08:28:57;95762.84;;;1.39;100.00
23616;BME280;11985;49.404;7.734;2023-03-07T08:34:00;95769.84;;;1.38;100.00
23616;BME280;11985;49.404;7.734;2023-03-07T08:39:02;95781.25;;;1.44;100.00
23616;BME280;11985;49.404;7.734;2023-03-07T08:44:04;95775.91;;;1.45;100.00
23616;BME280;11985;49.404;7.734;2023-03-07T08:49:07;95773.06;;;1.62;100.00
23616;BME280;11985;49.404;7.734;2023-03-07T08:54:08;95769.72;;;1.68;100.00
23616;BME280;11985;49.404;7.734;2023-03-07T08:59:10;95766.38;;;1.74;100.00
23616;BME280;11985;49.404;7.734;2023-03-07T09:04:13;95757.19;;;1.99;100.00
23616;BME280;11985;49.404;7.734;2023-03-07T09:09:14;95759.50;;;2.16;100.00
23616;BME280;11985;49.404;7.734;2023-03-07T09:14:16;95758.19;;;2.33;100.00
23616;BME280;11985;49.404;7.734;2023-03-07T09:19:19;95752.31;;;2.18;100.00
23616;BME280;11985;49.404;7.734;2023-03-07T09:24:20;95754.16;;;2.24;100.00
23616;BME280;11985;49.404;7.734;2023-03-07T09:29:22;95745.34;;;2.59;100.00
23616;BME280;11985;49.404;7.734;2023-03-07T09:34:25;95745.09;;;2.89;99.39
23616;BME280;11985;49.404;7.734;2023-03-07T09:39:27;95745.34;;;3.07;96.52
23616;BME280;11985;49.404;7.734;2023-03-07T09:44:39;95745.16;;;3.15;94.44
23616;BME280;11985;49.404;7.734;2023-03-07T09:49:49;95735.97;;;3.13;93.17
23616;BME280;11985;49.404;7.734;2023-03-07T09:54:55;95729.81;;;3.34;93.72
23616;BME280;11985;49.404;7.734;2023-03-07T09:59:59;95725.19;;;3.49;92.05
23616;BME280;11985;49.404;7.734;2023-03-07T10:05:15;95725.84;;;3.78;90.81
23616;BME280;11985;49.404;7.734;2023-03-07T10:10:25;95724.22;;;3.83;89.74
23616;BME280;11985;49.404;7.734;2023-03-07T10:15:41;95720.81;;;3.69;89.28
23616;BME280;11985;49.404;7.734;2023-03-07T10:20:48;95710.00;;;3.73;87.88
23616;BME280;11985;49.404;7.734;2023-03-07T10:25:53;95712.19;;;3.69;87.43
23616;BME280;11985;49.404;7.734;2023-03-07T10:31:17;95718.22;;;3.56;86.04
23616;BME280;11985;49.404;7.734;2023-03-07T10:36:30;95707.59;;;3.58;86.16
23616;BME280;11985;49.404;7.734;2023-03-07T10:41:35;95706.41;;;3.80;86.40
23616;BME280;11985;49.404;7.734;2023-03-07T10:46:37;95714.38;;;4.05;85.55
23616;BME280;11985;49.404;7.734;2023-03-07T10:51:49;95693.59;;;3.72;84.42
23616;BME280;11985;49.404;7.734;2023-03-07T10:57:03;95686.78;;;3.78;85.57
23616;BME280;11985;49.404;7.734;2023-03-07T11:02:26;95691.75;;;4.06;85.99
23616;BME280;11985;49.404;7.734;2023-03-07T11:07:32;95688.16;;;3.87;85.13
23616;BME280;11985;49.404;7.734;2023-03-07T11:12:43;95693.78;;;3.84;85.84
23616;BME280;11985;49.404;7.734;2023-03-07T11:17:47;95682.31;;;4.11;85.51
23616;BME280;11985;49.404;7.734;2023-03-07T11:23:11;95684.06;;;4.31;85.04
23616;BME280;11985;49.404;7.734;2023-03-07T11:28:24;95679.34;;;4.59;84.29
23616;BME280;11985;49.404;7.734;2023-03-07T11:33:33;95668.44;;;4.75;83.04
23616;BME280;11985;49.404;7.734;2023-03-07T11:38:53;95667.47;;;5.08;82.43
23616;BME280;11985;49.404;7.734;2023-03-07T11:44:04;95665.78;;;4.89;79.64
23616;BME280;11985;49.404;7.734;2023-03-07T11:49:20;95659.25;;;4.66;78.86
23616;BME280;11985;49.404;7.734;2023-03-07T11:54:31;95653.75;;;4.43;78.73
23616;BME280;11985;49.404;7.734;2023-03-07T12:00:02;95652.50;;;4.52;79.65
23616;BME280;11985;49.404;7.734;2023-03-07T12:05:20;95650.91;;;4.51;79.90
23616;BME280;11985;49.404;7.734;2023-03-07T12:10:38;95650.75;;;4.46;79.92
23616;BME280;11985;49.404;7.734;2023-03-07T12:15:46;95641.75;;;4.35;79.31
23616;BME280;11985;49.404;7.734;2023-03-07T12:20:59;95620.31;;;4.27;79.81
23616;BME280;11985;49.404;7.734;2023-03-07T12:26:10;95608.84;;;4.41;79.78
23616;BME280;11985;49.404;7.734;2023-03-07T12:31:16;95615.53;;;4.68;79.60
23616;BME280;11985;49.404;7.734;2023-03-07T12:36:25;95605.84;;;4.75;78.71
23616;BME280;11985;49.404;7.734;2023-03-07T12:41:41;95617.72;;;4.71;77.12
23616;BME280;11985;49.404;7.734;2023-03-07T12:46:48;95604.16;;;4.94;77.27
23616;BME280;11985;49.404;7.734;2023-03-07T12:51:53;95605.69;;;5.02;75.78
23616;BME280;11985;49.404;7.734;2023-03-07T12:57:07;95600.03;;;5.05;74.05
23616;BME280;11985;49.404;7.734;2023-03-07T13:02:12;95615.75;;;4.67;73.96
23616;BME280;11985;49.404;7.734;2023-03-07T13:07:20;95608.19;;;4.52;74.57
23616;BME280;11985;49.404;7.734;2023-03-07T13:12:33;95617.88;;;4.45;74.76
23616;BME280;11985;49.404;7.734;2023-03-07T13:17:55;95615.88;;;4.40;74.41
23616;BME280;11985;49.404;7.734;2023-03-07T13:23:21;95611.16;;;4.17;74.84
23616;BME280;11985;49.404;7.734;2023-03-07T13:28:40;95624.19;;;4.17;75.60
23616;BME280;11985;49.404;7.734;2023-03-07T13:33:43;95627.59;;;4.11;76.20
23616;BME280;11985;49.404;7.734;2023-03-07T13:38:44;95640.66;;;3.98;78.71
23616;BME280;11985;49.404;7.734;2023-03-07T13:43:59;95630.84;;;3.87;82.17
23616;BME280;11985;49.404;7.734;2023-03-07T13:49:01;95649.13;;;3.54;84.28
23616;BME280;11985;49.404;7.734;2023-03-07T13:54:04;95641.50;;;3.32;86.88
23616;BME280;11985;49.404;7.734;2023-03-07T13:59:17;95663.53;;;3.23;89.44
23616;BME280;11985;49.404;7.734;2023-03-07T14:04:22;95665.88;;;2.98;91.86
23616;BME280;11985;49.404;7.734;2023-03-07T14:09:29;95669.03;;;2.67;95.25
23616;BME280;11985;49.404;7.734;2023-03-07T14:14:44;95665.06;;;2.30;100.00
23616;BME280;11985;49.404;7.734;2023-03-07T14:19:57;95676.81;;;2.19;100.00
23616;BME280;11985;49.404;7.734;2023-03-07T14:25:12;95675.19;;;2.11;100.00
23616;BME280;11985;49.404;7.734;2023-03-07T14:30:18;95664.78;;;2.11;100.00
23616;BME280;11985;49.404;7.734;2023-03-07T14:35:37;95665.97;;;2.09;100.00
23616;BME280;11985;49.404;7.734;2023-03-07T14:40:49;95671.84;;;2.24;100.00
23616;BME280;11985;49.404;7.734;2023-03-07T14:45:58;95659.47;;;2.33;100.00
23616;BME280;11985;49.404;7.734;2023-03-07T14:51:07;95644.75;;;2.47;100.00
23616;BME280;11985;49.404;7.734;2023-03-07T14:56:19;95636.19;;;2.66;100.00
23616;BME280;11985;49.404;7.734;2023-03-07T15:01:28;95633.84;;;2.78;100.00
23616;BME280;11985;49.404;7.734;2023-03-07T15:06:41;95615.66;;;2.78;100.00
23616;BME280;11985;49.404;7.734;2023-03-07T15:11:44;95616.69;;;2.90;100.00
23616;BME280;11985;49.404;7.734;2023-03-07T15:16:50;95615.50;;;3.06;100.00
23616;BME280;11985;49.404;7.734;2023-03-07T15:21:55;95607.06;;;3.10;100.00
23616;BME280;11985;49.404;7.734;2023-03-07T15:26:59;95594.47;;;3.14;100.00
23616;BME280;11985;49.404;7.734;2023-03-07T15:32:04;95592.88;;;3.20;100.00
23616;BME280;11985;49.404;7.734;2023-03-07T15:37:19;95596.69;;;3.37;99.35
23616;BME280;11985;49.404;7.734;2023-03-07T15:42:21;95591.03;;;3.60;97.69
23616;BME280;11985;49.404;7.734;2023-03-07T15:47:25;95591.84;;;3.60;95.15
23616;BME280;11985;49.404;7.734;2023-03-07T15:52:29;95598.66;;;3.61;93.80
23616;BME280;11985;49.404;7.734;2023-03-07T15:57:49;95600.06;;;3.57;92.88
23616;BME280;11985;49.404;7.734;2023-03-07T16:03:16;95601.06;;;3.50;91.81
23616;BME280;11985;49.404;7.734;2023-03-07T16:08:20;95611.47;;;3.50;91.39
23616;BME280;11985;49.404;7.734;2023-03-07T16:13:25;95611.69;;;3.48;90.76
23616;BME280;11985;49.404;7.734;2023-03-07T16:18:30;95611.47;;;3.43;89.72
23616;BME280;11985;49.404;7.734;2023-03-07T16:23:32;95609.50;;;3.45;89.44
23616;BME280;11985;49.404;7.734;2023-03-07T16:28:34;95615.06;;;3.55;89.14
23616;BME280;11985;49.404;7.734;2023-03-07T16:33:37;95625.09;;;3.58;88.89
23616;BME280;11985;49.404;7.734;2023-03-07T16:38:39;95625.91;;;3.52;89.03
23616;BME280;11985;49.404;7.734;2023-03-07T16:43:40;95628.50;;;3.52;88.75
23616;BME280;11985;49.404;7.734;2023-03-07T16:48:43;95628.72;;;3.51;88.30
23616;BME280;11985;49.404;7.734;2023-03-07T16:53:46;95620.09;;;3.50;88.28
23616;BME280;11985;49.404;7.734;2023-03-07T16:58:51;95633.50;;;3.54;87.42
23616;BME280;11985;49.404;7.734;2023-03-07T17:03:55;95644.91;;;3.53;86.97
23616;BME280;11985;49.404;7.734;2023-03-07T17:08:59;95649.75;;;3.56;86.32
23616;BME280;11985;49.404;7.734;2023-03-07T17:14:07;95642.91;;;3.55;85.91
23616;BME280;11985;49.404;7.734;2023-03-07T17:19:18;95640.31;;;3.55;86.14
23616;BME280;11985;49.404;7.734;2023-03-07T17:24:22;95658.94;;;3.52;85.62
23616;BME280;11985;49.404;7.734;2023-03-07T17:29:27;95666.16;;;3.56;85.50
23616;BME280;11985;49.404;7.734;2023-03-07T17:34:33;95672.34;;;3.49;85.14
23616;BME280;11985;49.404;7.734;2023-03-07T17:39:35;95679.97;;;3.50;84.91
23616;BME280;11985;49.404;7.734;2023-03-07T17:44:37;95690.19;;;3.45;84.67
23616;BME280;11985;49.404;7.734;2023-03-07T17:49:40;95692.78;;;3.45;84.23
23616;BME280;11985;49.404;7.734;2023-03-07T17:54:41;95693.97;;;3.42;84.40
23616;BME280;11985;49.404;7.734;2023-03-07T17:59:45;95689.56;;;3.43;83.78
23616;BME280;11985;49.404;7.734;2023-03-07T18:04:48;95701.97;;;3.41;83.54
23616;BME280;11985;49.404;7.734;2023-03-07T18:09:50;95698.38;;;3.42;83.39
23616;BME280;11985;49.404;7.734;2023-03-07T18:14:52;95698.38;;;3.42;83.50
23616;BME280;11985;49.404;7.734;2023-03-07T18:19:55;95705.59;;;3.40;83.56
23616;BME280;11985;49.404;7.734;2023-03-07T18:24:56;95711.19;;;3.43;83.67
23616;BME280;11985;49.404;7.734;2023-03-07T18:29:58;95718.59;;;3.53;83.75
23616;BME280;11985;49.404;7.734;2023-03-07T18:35:01;95716.41;;;3.50;83.49
23616;BME280;11985;49.404;7.734;2023-03-07T18:40:03;95720.78;;;3.43;83.39
23616;BME280;11985;49.404;7.734;2023-03-07T18:45:07;95730.19;;;3.44;83.83
23616;BME280;11985;49.404;7.734;2023-03-07T18:50:11;95734.81;;;3.42;84.01
23616;BME280;11985;49.404;7.734;2023-03-07T18:55:12;95737.81;;;3.39;83.75
23616;BME280;11985;49.404;7.734;2023-03-07T19:00:14;95732.19;;;3.35;83.90
23616;BME280;11985;49.404;7.734;2023-03-07T19:05:17;95726.59;;;3.32;83.83
23616;BME280;11985;49.404;7.734;2023-03-07T19:10:19;95734.00;;;3.28;83.92
23616;BME280;11985;49.404;7.734;2023-03-07T19:15:21;95733.78;;;3.30;83.43
23616;BME280;11985;49.404;7.734;2023-03-07T19:20:24;95732.78;;;3.31;83.13
23616;BME280;11985;49.404;7.734;2023-03-07T19:25:26;95734.59;;;3.37;83.08
23616;BME280;11985;49.404;7.734;2023-03-07T19:30:29;95734.44;;;3.45;82.31
23616;BME280;11985;49.404;7.734;2023-03-07T19:35:35;95731.63;;;3.40;81.79
23616;BME280;11985;49.404;7.734;2023-03-07T19:40:37;95733.00;;;3.36;81.40
23616;BME280;11985;49.404;7.734;2023-03-07T19:45:38;95745.59;;;3.32;81.19
23616;BME280;11985;49.404;7.734;2023-03-07T19:50:41;95756.00;;;3.32;81.15
23616;BME280;11985;49.404;7.734;2023-03-07T19:55:43;95753.22;;;3.34;81.35
23616;BME280;11985;49.404;7.734;2023-03-07T20:00:45;95758.59;;;3.32;81.07
23616;BME280;11985;49.404;7.734;2023-03-07T20:05:48;95764.44;;;3.28;81.07
23616;BME280;11985;49.404;7.734;2023-03-07T20:10:49;95761.59;;;3.23;81.04
23616;BME280;11985;49.404;7.734;2023-03-07T20:15:51;95759.16;;;3.14;81.02
23616;BME280;11985;49.404;7.734;2023-03-07T20:20:54;95773.16;;;3.07;80.95
23616;BME280;11985;49.404;7.734;2023-03-07T20:26:01;95779.16;;;3.07;81.08
23616;BME280;11985;49.404;7.734;2023-03-07T20:31:04;95776.38;;;3.15;80.56
23616;BME280;11985;49.404;7.734;2023-03-07T20:36:14;95760.38;;;3.18;80.21
23616;BME280;11985;49.404;7.734;2023-03-07T20:41:17;95760.75;;;3.15;79.54
23616;BME280;11985;49.404;7.734;2023-03-07T20:46:20;95772.97;;;3.08;79.86
23616;BME280;11985;49.404;7.734;2023-03-07T20:51:25;95789.94;;;3.04;79.49
23616;BME280;11985;49.404;7.734;2023-03-07T20:56:27;95780.75;;;3.02;79.34
23616;BME280;11985;49.404;7.734;2023-03-07T21:01:31;95779.94;;;3.01;79.10
23616;BME280;11985;49.404;7.734;2023-03-07T21:06:34;95790.94;;;3.03;78.71
23616;BME280;11985;49.404;7.734;2023-03-07T21:11:38;95795.56;;;3.01;78.52
23616;BME280;11985;49.404;7.734;2023-03-07T21:16:40;95800.75;;;3.01;78.15
23616;BME280;11985;49.404;7.734;2023-03-07T21:21:44;95777.13;;;3.03;77.66
23616;BME280;11985;49.404;7.734;2023-03-07T21:26:49;95790.56;;;3.06;77.54
23616;BME280;11985;49.404;7.734;2023-03-07T21:31:50;95792.75;;;3.09;77.23
23616;BME280;11985;49.404;7.734;2023-03-07T21:36:54;95815.00;;;3.12;77.29
23616;BME280;11985;49.404;7.734;2023-03-07T21:41:56;95807.78;;;3.07;76.84
23616;BME280;11985;49.404;7.734;2023-03-07T21:46:57;95800.56;;;3.03;76.80
23616;BME280;11985;49.404;7.734;2023-03-07T21:52:00;95797.13;;;2.96;76.82
23616;BME280;11985;49.404;7.734;2023-03-07T21:57:02;95799.31;;;2.92;76.75
23616;BME280;11985;49.404;7.734;2023-03-07T22:02:04;95799.50;;;2.90;76.66
23616;BME280;11985;49.404;7.734;2023-03-07T22:07:07;95815.09;;;2.84;76.69
23616;BME280;11985;49.404;7.734;2023-03-07T22:12:08;95811.84;;;2.82;77.25
23616;BME280;11985;49.404;7.734;2023-03-07T22:17:10;95812.28;;;2.85;76.96
23616;BME280;11985;49.404;7.734;2023-03-07T22:22:13;95817.69;;;2.84;76.88
23616;BME280;11985;49.404;7.734;2023-03-07T22:27:14;95825.41;;;2.77;77.38
23616;BME280;11985;49.404;7.734;2023-03-07T22:32:16;95824.38;;;2.72;78.25
23616;BME280;11985;49.404;7.734;2023-03-07T22:37:19;95823.19;;;2.68;78.56
23616;BME280;11985;49.404;7.734;2023-03-07T22:42:20;95824.19;;;2.67;78.63
23616;BME280;11985;49.404;7.734;2023-03-07T22:47:22;95817.38;;;2.65;78.99
23616;BME280;11985;49.404;7.734;2023-03-07T22:52:25;95828.19;;;2.69;78.69
23616;BME280;11985;49.404;7.734;2023-03-07T22:57:26;95820.59;;;2.68;79.07
23616;BME280;11985;49.404;7.734;2023-03-07T23:02:28;95808.59;;;2.67;78.74
23616;BME280;11985;49.404;7.734;2023-03-07T23:07:31;95802.94;;;2.56;78.85
23616;BME280;11985;49.404;7.734;2023-03-07T23:12:32;95832.66;;;2.47;78.99
23616;BME280;11985;49.404;7.734;2023-03-07T23:17:34;95823.63;;;2.43;79.32
23616;BME280;11985;49.404;7.734;2023-03-07T23:22:37;95819.19;;;2.37;79.45
23616;BME280;11985;49.404;7.734;2023-03-07T23:27:40;95824.56;;;2.35;79.47
23616;BME280;11985;49.404;7.734;2023-03-07T23:32:41;95830.56;;;2.36;79.74
23616;BME280;11985;49.404;7.734;2023-03-07T23:37:46;95830.00;;;2.41;79.51
23616;BME280;11985;49.404;7.734;2023-03-07T23:42:48;95833.41;;;2.41;79.36
23616;BME280;11985;49.404;7.734;2023-03-07T23:47:50;95830.81;;;2.41;79.08
23616;BME280;11985;49.404;7.734;2023-03-07T23:52:52;95830.00;;;2.41;79.13
23616;BME280;11985;49.404;7.734;2023-03-07T23:57:54;95837.63;;;2.42;79.18
